sensor_id;sensor_type;location;lat;lon;timestamp;pressure;altitude;pressure_sealevel;temperature;humidity
28630;BME280;15817;42.130;24.762;2023-10-08T00:00:24;100103.53;;;18.53;46.73
28630;BME280;15817;42.130;24.762;2023-10-08T00:06:09;100104.34;;;18.55;46.54
28630;BME280;15817;42.130;24.762;2023-10-08T00:08:49;100093.63;;;18.53;46.45
28630;BME280;15817;42.130;24.762;2023-10-08T00:11:47;100089.13;;;18.54;46.52
28630;BME280;15817;42.130;24.762;2023-10-08T00:14:36;100089.88;;;18.59;46.58
28630;BME280;15817;42.130;24.762;2023-10-08T00:17:34;100092.81;;;18.51;46.47
28630;BME280;15817;42.130;24.762;2023-10-08T00:20:29;100077.56;;;18.50;46.55
28630;BME280;15817;42.130;24.762;2023-10-08T00:23:04;100080.16;;;18.53;46.48
28630;BME280;15817;42.130;24.762;2023-10-08T00:25:46;100074.00;;;18.50;46.41
28630;BME280;15817;42.130;24.762;2023-10-08T00:28:15;100062.38;;;18.48;46.20
28630;BME280;15817;42.130;24.762;2023-10-08T00:30:45;100076.50;;;18.56;46.10
28630;BME280;15817;42.130;24.762;2023-10-08T00:33:19;100065.97;;;18.48;46.32
28630;BME280;15817;42.130;24.762;2023-10-08T00:35:53;100069.72;;;18.44;46.45
28630;BME280;15817;42.130;24.762;2023-10-08T00:38:24;100065.25;;;18.43;46.42
28630;BME280;15817;42.130;24.762;2023-10-08T00:41:00;100065.31;;;18.41;46.44
28630;BME280;15817;42.130;24.762;2023-10-08T00:43:37;100062.63;;;18.41;46.31
28630;BME280;15817;42.130;24.762;2023-10-08T00:46:09;100075.09;;;18.44;46.42
28630;BME280;15817;42.130;24.762;2023-10-08T00:49:42;100083.84;;;18.51;46.44
28630;BME280;15817;42.130;24.762;2023-10-08T00:52:22;100068.69;;;18.46;46.31
28630;BME280;15817;42.130;24.762;2023-10-08T00:54:56;100061.50;;;18.47;46.26
28630;BME280;15817;42.130;24.762;2023-10-08T00:57:45;100065.81;;;18.53;46.50
28630;BME280;15817;42.130;24.762;2023-10-08T01:00:48;100075.66;;;18.54;46.39
28630;BME280;15817;42.130;24.762;2023-10-08T01:03:25;100057.00;;;18.48;46.42
28630;BME280;15817;42.130;24.762;2023-10-08T01:06:11;100058.81;;;18.47;46.42
28630;BME280;15817;42.130;24.762;2023-10-08T01:08:48;100056.06;;;18.49;46.42
28630;BME280;15817;42.130;24.762;2023-10-08T01:11:25;100055.25;;;18.46;46.36
28630;BME280;15817;42.130;24.762;2023-10-08T01:14:16;100065.22;;;18.44;46.47
28630;BME280;15817;42.130;24.762;2023-10-08T01:16:51;100048.69;;;18.29;46.27
28630;BME280;15817;42.130;24.762;2023-10-08T01:19:29;100040.47;;;18.33;46.49
28630;BME280;15817;42.130;24.762;2023-10-08T01:22:16;100043.16;;;18.33;46.61
28630;BME280;15817;42.130;24.762;2023-10-08T01:24:48;100037.66;;;18.36;46.57
28630;BME280;15817;42.130;24.762;2023-10-08T01:27:19;100051.66;;;18.46;46.44
28630;BME280;15817;42.130;24.762;2023-10-08T01:30:10;100057.94;;;18.46;46.34
28630;BME280;15817;42.130;24.762;2023-10-08T01:32:48;100040.13;;;18.42;46.40
28630;BME280;15817;42.130;24.762;2023-10-08T01:35:29;100032.09;;;18.41;46.32
28630;BME280;15817;42.130;24.762;2023-10-08T01:38:08;100027.69;;;18.38;46.66
28630;BME280;15817;42.130;24.762;2023-10-08T01:40:42;100035.13;;;18.32;47.05
28630;BME280;15817;42.130;24.762;2023-10-08T01:43:25;100029.09;;;18.24;47.26
28630;BME280;15817;42.130;24.762;2023-10-08T01:46:12;100031.09;;;18.19;47.48
28630;BME280;15817;42.130;24.762;2023-10-08T01:48:47;100027.66;;;18.14;47.79
28630;BME280;15817;42.130;24.762;2023-10-08T01:51:24;100026.84;;;18.12;47.77
28630;BME280;15817;42.130;24.762;2023-10-08T01:54:01;100014.47;;;18.06;48.00
28630;BME280;15817;42.130;24.762;2023-10-08T01:56:38;100004.88;;;17.99;48.22
28630;BME280;15817;42.130;24.762;2023-10-08T01:59:21;100004.03;;;17.97;48.30
28630;BME280;15817;42.130;24.762;2023-10-08T02:01:57;100006.72;;;17.97;48.13
28630;BME280;15817;42.130;24.762;2023-10-08T02:04:49;100006.44;;;18.04;48.03
28630;BME280;15817;42.130;24.762;2023-10-08T02:07:41;99994.09;;;17.99;47.63
28630;BME280;15817;42.130;24.762;2023-10-08T02:10:20;100009.16;;;18.04;47.35
28630;BME280;15817;42.130;24.762;2023-10-08T02:12:57;100004.53;;;18.08;47.05
28630;BME280;15817;42.130;24.762;2023-10-08T02:15:25;99999.41;;;18.00;46.68
28630;BME280;15817;42.130;24.762;2023-10-08T02:17:55;100012.56;;;18.09;46.91
28630;BME280;15817;42.130;24.762;2023-10-08T02:20:25;100004.50;;;18.09;46.82
28630;BME280;15817;42.130;24.762;2023-10-08T02:23:17;100002.59;;;18.12;46.83
28630;BME280;15817;42.130;24.762;2023-10-08T02:26:02;99998.22;;;18.09;47.02
28630;BME280;15817;42.130;24.762;2023-10-08T02:28:31;100011.41;;;18.17;46.61
28630;BME280;15817;42.130;24.762;2023-10-08T02:31:19;100002.56;;;18.13;46.42
28630;BME280;15817;42.130;24.762;2023-10-08T02:34:07;99997.06;;;18.16;45.10
28630;BME280;15817;42.130;24.762;2023-10-08T02:36:43;99997.69;;;18.24;44.60
28630;BME280;15817;42.130;24.762;2023-10-08T02:39:20;99983.28;;;18.25;44.10
28630;BME280;15817;42.130;24.762;2023-10-08T02:42:02;99985.00;;;18.28;43.93
28630;BME280;15817;42.130;24.762;2023-10-08T02:44:38;99976.88;;;18.29;44.04
28630;BME280;15817;42.130;24.762;2023-10-08T02:47:09;99979.56;;;18.29;44.53
28630;BME280;15817;42.130;24.762;2023-10-08T02:49:37;99975.88;;;18.32;45.00
28630;BME280;15817;42.130;24.762;2023-10-08T02:52:25;99981.31;;;18.30;45.07
28630;BME280;15817;42.130;24.762;2023-10-08T02:54:54;99974.22;;;18.28;44.92
28630;BME280;15817;42.130;24.762;2023-10-08T02:57:20;99976.22;;;18.23;45.17
28630;BME280;15817;42.130;24.762;2023-10-08T02:59:55;99977.19;;;18.20;45.13
28630;BME280;15817;42.130;24.762;2023-10-08T03:02:23;99992.25;;;18.26;45.54
28630;BME280;15817;42.130;24.762;2023-10-08T03:04:55;99986.91;;;18.24;45.42
28630;BME280;15817;42.130;24.762;2023-10-08T03:07:30;99995.13;;;18.21;45.33
28630;BME280;15817;42.130;24.762;2023-10-08T03:09:59;99977.41;;;18.14;45.39
28630;BME280;15817;42.130;24.762;2023-10-08T03:12:34;99980.88;;;18.18;45.56
28630;BME280;15817;42.130;24.762;2023-10-08T03:15:04;99981.94;;;18.12;45.50
28630;BME280;15817;42.130;24.762;2023-10-08T03:17:41;99971.25;;;18.11;45.04
28630;BME280;15817;42.130;24.762;2023-10-08T03:20:20;99968.38;;;18.15;44.48
28630;BME280;15817;42.130;24.762;2023-10-08T03:22:58;99970.94;;;18.20;43.71
28630;BME280;15817;42.130;24.762;2023-10-08T03:25:24;99976.09;;;18.26;43.44
28630;BME280;15817;42.130;24.762;2023-10-08T03:27:51;99962.63;;;18.26;43.27
28630;BME280;15817;42.130;24.762;2023-10-08T03:30:20;99970.59;;;18.29;42.83
28630;BME280;15817;42.130;24.762;2023-10-08T03:32:50;99963.34;;;18.31;42.97
28630;BME280;15817;42.130;24.762;2023-10-08T03:35:25;99957.97;;;18.31;42.91
28630;BME280;15817;42.130;24.762;2023-10-08T03:38:02;99974.91;;;18.34;42.89
28630;BME280;15817;42.130;24.762;2023-10-08T03:40:51;99975.00;;;18.31;43.03
28630;BME280;15817;42.130;24.762;2023-10-08T03:43:27;99986.53;;;18.35;42.88
28630;BME280;15817;42.130;24.762;2023-10-08T03:46:22;99964.28;;;18.30;42.77
28630;BME280;15817;42.130;24.762;2023-10-08T03:48:57;99958.06;;;18.28;42.74
28630;BME280;15817;42.130;24.762;2023-10-08T03:51:25;99962.47;;;18.30;42.52
28630;BME280;15817;42.130;24.762;2023-10-08T03:53:56;99961.53;;;18.31;42.56
28630;BME280;15817;42.130;24.762;2023-10-08T03:56:26;99964.97;;;18.35;42.53
28630;BME280;15817;42.130;24.762;2023-10-08T03:58:58;99963.31;;;18.32;42.29
28630;BME280;15817;42.130;24.762;2023-10-08T04:01:31;99974.91;;;18.34;42.32
28630;BME280;15817;42.130;24.762;2023-10-08T04:04:10;99972.31;;;18.31;42.66
28630;BME280;15817;42.130;24.762;2023-10-08T04:06:43;99970.59;;;18.29;42.72
28630;BME280;15817;42.130;24.762;2023-10-08T04:09:44;99982.00;;;18.35;43.10
28630;BME280;15817;42.130;24.762;2023-10-08T04:12:12;99976.97;;;18.26;43.03
28630;BME280;15817;42.130;24.762;2023-10-08T04:14:44;99957.25;;;18.26;42.87
28630;BME280;15817;42.130;24.762;2023-10-08T04:17:10;99961.69;;;18.27;43.11
28630;BME280;15817;42.130;24.762;2023-10-08T04:19:41;99975.00;;;18.31;42.81
28630;BME280;15817;42.130;24.762;2023-10-08T04:22:08;99966.28;;;18.23;42.62
28630;BME280;15817;42.130;24.762;2023-10-08T04:24:45;99972.66;;;18.22;42.87
28630;BME280;15817;42.130;24.762;2023-10-08T04:27:18;99966.38;;;18.22;42.46
28630;BME280;15817;42.130;24.762;2023-10-08T04:29:49;99960.13;;;18.21;42.42
28630;BME280;15817;42.130;24.762;2023-10-08T04:32:18;99963.69;;;18.22;42.30
28630;BME280;15817;42.130;24.762;2023-10-08T04:34:50;99962.84;;;18.20;42.30
28630;BME280;15817;42.130;24.762;2023-10-08T04:37:18;99968.25;;;18.20;42.19
28630;BME280;15817;42.130;24.762;2023-10-08T04:39:57;99966.47;;;18.19;42.04
28630;BME280;15817;42.130;24.762;2023-10-08T04:42:25;99968.19;;;18.21;41.79
28630;BME280;15817;42.130;24.762;2023-10-08T04:44:56;99970.16;;;18.16;41.96
28630;BME280;15817;42.130;24.762;2023-10-08T04:47:26;99968.34;;;18.17;41.96
28630;BME280;15817;42.130;24.762;2023-10-08T04:50:01;99975.50;;;18.18;41.83
28630;BME280;15817;42.130;24.762;2023-10-08T04:52:37;99974.50;;;18.20;42.02
28630;BME280;15817;42.130;24.762;2023-10-08T04:55:15;99971.88;;;18.19;41.70
28630;BME280;15817;42.130;24.762;2023-10-08T04:57:46;99977.06;;;18.23;41.59
28630;BME280;15817;42.130;24.762;2023-10-08T05:00:14;99969.16;;;18.19;41.30
28630;BME280;15817;42.130;24.762;2023-10-08T05:02:41;99974.38;;;18.23;41.24
28630;BME280;15817;42.130;24.762;2023-10-08T05:05:18;99987.59;;;18.31;41.15
28630;BME280;15817;42.130;24.762;2023-10-08T05:07:44;99970.66;;;18.27;40.77
28630;BME280;15817;42.130;24.762;2023-10-08T05:10:14;99974.03;;;18.34;40.36
28630;BME280;15817;42.130;24.762;2023-10-08T05:13:11;99979.31;;;18.35;40.43
28630;BME280;15817;42.130;24.762;2023-10-08T05:16:18;99977.34;;;18.40;40.21
28630;BME280;15817;42.130;24.762;2023-10-08T05:19:05;99970.13;;;18.42;39.88
28630;BME280;15817;42.130;24.762;2023-10-08T05:22:09;99964.69;;;18.44;39.58
28630;BME280;15817;42.130;24.762;2023-10-08T05:25:45;99957.34;;;18.48;39.65
28630;BME280;15817;42.130;24.762;2023-10-08T05:35:23;99952.31;;;18.63;38.92
28630;BME280;15817;42.130;24.762;2023-10-08T05:38:13;99954.91;;;18.66;38.75
28630;BME280;15817;42.130;24.762;2023-10-08T05:41:14;99956.50;;;18.70;38.79
28630;BME280;15817;42.130;24.762;2023-10-08T05:44:23;99959.69;;;18.81;38.53
28630;BME280;15817;42.130;24.762;2023-10-08T05:47:12;99953.59;;;18.76;38.86
28630;BME280;15817;42.130;24.762;2023-10-08T05:54:02;99961.59;;;18.79;38.83
28630;BME280;15817;42.130;24.762;2023-10-08T05:56:58;99974.81;;;18.86;38.95
28630;BME280;15817;42.130;24.762;2023-10-08T05:59:47;99980.03;;;18.90;38.75
28630;BME280;15817;42.130;24.762;2023-10-08T06:02:49;99963.91;;;18.89;38.15
28630;BME280;15817;42.130;24.762;2023-10-08T06:05:39;99977.91;;;18.98;37.75
28630;BME280;15817;42.130;24.762;2023-10-08T06:08:15;99970.66;;;19.00;37.67
28630;BME280;15817;42.130;24.762;2023-10-08T06:14:02;99979.97;;;19.15;37.28
28630;BME280;15817;42.130;24.762;2023-10-08T06:17:02;99981.91;;;19.11;37.64
28630;BME280;15817;42.130;24.762;2023-10-08T06:20:11;99995.03;;;19.21;37.75
28630;BME280;15817;42.130;24.762;2023-10-08T06:22:51;100000.34;;;19.22;37.67
28630;BME280;15817;42.130;24.762;2023-10-08T06:25:55;99986.94;;;19.21;38.41
28630;BME280;15817;42.130;24.762;2023-10-08T06:28:47;99984.13;;;19.24;38.64
28630;BME280;15817;42.130;24.762;2023-10-08T06:31:45;99982.34;;;19.23;38.98
28630;BME280;15817;42.130;24.762;2023-10-08T06:34:32;99982.03;;;19.30;39.46
28630;BME280;15817;42.130;24.762;2023-10-08T06:37:27;99967.06;;;19.23;39.58
28630;BME280;15817;42.130;24.762;2023-10-08T06:43:16;99967.69;;;19.30;39.72
28630;BME280;15817;42.130;24.762;2023-10-08T06:45:57;99978.28;;;19.34;39.86
28630;BME280;15817;42.130;24.762;2023-10-08T06:48:36;99980.88;;;19.37;39.96
28630;BME280;15817;42.130;24.762;2023-10-08T06:51:08;99986.94;;;19.42;40.09
28630;BME280;15817;42.130;24.762;2023-10-08T06:53:54;99985.13;;;19.43;39.92
28630;BME280;15817;42.130;24.762;2023-10-08T06:56:48;99990.41;;;19.46;39.66
28630;BME280;15817;42.130;24.762;2023-10-08T06:59:35;99994.66;;;19.53;39.61
28630;BME280;15817;42.130;24.762;2023-10-08T07:02:15;99977.47;;;19.56;39.31
28630;BME280;15817;42.130;24.762;2023-10-08T07:04:54;99977.84;;;19.68;38.38
28630;BME280;15817;42.130;24.762;2023-10-08T07:07:21;99976.50;;;19.78;37.20
28630;BME280;15817;42.130;24.762;2023-10-08T07:10:01;99979.63;;;19.89;37.47
28630;BME280;15817;42.130;24.762;2023-10-08T07:19:57;99978.50;;;20.37;35.35
28630;BME280;15817;42.130;24.762;2023-10-08T07:22:54;99972.06;;;20.60;35.06
28630;BME280;15817;42.130;24.762;2023-10-08T07:25:25;99976.84;;;20.74;34.86
28630;BME280;15817;42.130;24.762;2023-10-08T07:28:24;99966.19;;;20.89;34.43
28630;BME280;15817;42.130;24.762;2023-10-08T07:31:33;99948.28;;;21.06;34.20
28630;BME280;15817;42.130;24.762;2023-10-08T07:34:25;99953.19;;;21.16;33.70
28630;BME280;15817;42.130;24.762;2023-10-08T07:37:08;99943.56;;;21.29;33.74
28630;BME280;15817;42.130;24.762;2023-10-08T07:40:20;99942.91;;;21.43;33.28
28630;BME280;15817;42.130;24.762;2023-10-08T07:42:59;99941.25;;;21.58;33.11
28630;BME280;15817;42.130;24.762;2023-10-08T07:45:47;99943.50;;;21.67;33.10
28630;BME280;15817;42.130;24.762;2023-10-08T07:49:01;99937.31;;;21.82;33.00
28630;BME280;15817;42.130;24.762;2023-10-08T07:54:48;99936.97;;;22.07;32.31
28630;BME280;15817;42.130;24.762;2023-10-08T08:00:12;99936.31;;;22.36;32.20
28630;BME280;15817;42.130;24.762;2023-10-08T08:03:36;99937.44;;;22.50;32.08
28630;BME280;15817;42.130;24.762;2023-10-08T08:06:53;99925.88;;;22.62;31.60
28630;BME280;15817;42.130;24.762;2023-10-08T08:09:38;99932.34;;;22.77;31.95
28630;BME280;15817;42.130;24.762;2023-10-08T08:12:59;99911.53;;;22.77;31.59
28630;BME280;15817;42.130;24.762;2023-10-08T08:16:22;99911.81;;;22.88;31.28
28630;BME280;15817;42.130;24.762;2023-10-08T08:22:16;99921.66;;;23.06;30.84
28630;BME280;15817;42.130;24.762;2023-10-08T08:25:42;99911.41;;;23.11;31.12
28630;BME280;15817;42.130;24.762;2023-10-08T08:28:54;99908.34;;;23.18;30.87
28630;BME280;15817;42.130;24.762;2023-10-08T08:41:10;99895.09;;;23.74;30.49
28630;BME280;15817;42.130;24.762;2023-10-08T08:44:23;99886.72;;;23.77;29.83
28630;BME280;15817;42.130;24.762;2023-10-08T08:47:10;99876.56;;;23.81;29.82
28630;BME280;15817;42.130;24.762;2023-10-08T08:49:44;99877.84;;;23.90;30.03
28630;BME280;15817;42.130;24.762;2023-10-08T08:52:19;99884.59;;;23.98;30.00
28630;BME280;15817;42.130;24.762;2023-10-08T08:54:56;99885.78;;;24.08;29.86
28630;BME280;15817;42.130;24.762;2023-10-08T08:57:35;99880.81;;;24.15;29.82
28630;BME280;15817;42.130;24.762;2023-10-08T09:04:23;99866.91;;;24.35;29.49
28630;BME280;15817;42.130;24.762;2023-10-08T09:07:31;99852.75;;;24.44;29.29
28630;BME280;15817;42.130;24.762;2023-10-08T09:10:36;99865.25;;;24.61;29.49
28630;BME280;15817;42.130;24.762;2023-10-08T09:13:26;99857.69;;;24.66;29.38
28630;BME280;15817;42.130;24.762;2023-10-08T09:16:19;99852.44;;;24.77;29.36
28630;BME280;15817;42.130;24.762;2023-10-08T09:19:23;99847.47;;;24.84;29.51
28630;BME280;15817;42.130;24.762;2023-10-08T09:22:06;99854.94;;;24.95;29.17
28630;BME280;15817;42.130;24.762;2023-10-08T09:24:55;99833.88;;;24.98;29.03
28630;BME280;15817;42.130;24.762;2023-10-08T09:27:26;99844.56;;;25.01;28.94
28630;BME280;15817;42.130;24.762;2023-10-08T09:30:14;99842.97;;;25.11;29.20
28630;BME280;15817;42.130;24.762;2023-10-08T09:33:19;99841.69;;;25.17;28.84
28630;BME280;15817;42.130;24.762;2023-10-08T09:36:33;99827.66;;;25.23;28.90
28630;BME280;15817;42.130;24.762;2023-10-08T09:39:57;99819.41;;;25.24;29.16
28630;BME280;15817;42.130;24.762;2023-10-08T09:45:22;99821.06;;;25.40;29.57
28630;BME280;15817;42.130;24.762;2023-10-08T09:48:01;99819.38;;;25.51;29.44
28630;BME280;15817;42.130;24.762;2023-10-08T09:50:43;99799.13;;;25.55;29.54
28630;BME280;15817;42.130;24.762;2023-10-08T09:53:13;99802.31;;;25.62;29.67
28630;BME280;15817;42.130;24.762;2023-10-08T09:55:57;99808.03;;;25.72;29.77
28630;BME280;15817;42.130;24.762;2023-10-08T09:58:27;99809.78;;;25.73;29.52
28630;BME280;15817;42.130;24.762;2023-10-08T10:00:56;99800.38;;;25.77;29.49
28630;BME280;15817;42.130;24.762;2023-10-08T10:03:48;99794.09;;;25.89;29.71
28630;BME280;15817;42.130;24.762;2023-10-08T10:06:21;99789.94;;;25.83;29.49
28630;BME280;15817;42.130;24.762;2023-10-08T10:08:56;99786.56;;;25.92;30.46
28630;BME280;15817;42.130;24.762;2023-10-08T10:11:32;99777.19;;;25.96;30.06
28630;BME280;15817;42.130;24.762;2023-10-08T10:14:12;99771.22;;;26.04;31.56
28630;BME280;15817;42.130;24.762;2023-10-08T10:20:20;99771.75;;;26.35;31.83
28630;BME280;15817;42.130;24.762;2023-10-08T10:22:58;99755.94;;;26.40;32.70
28630;BME280;15817;42.130;24.762;2023-10-08T10:26:04;99759.63;;;26.51;34.28
28630;BME280;15817;42.130;24.762;2023-10-08T10:29:39;99763.66;;;26.20;30.63
28630;BME280;15817;42.130;24.762;2023-10-08T10:32:54;99745.13;;;25.87;34.23
28630;BME280;15817;42.130;24.762;2023-10-08T10:35:53;99744.91;;;25.90;31.83
28630;BME280;15817;42.130;24.762;2023-10-08T10:38:37;99748.28;;;26.19;31.27
28630;BME280;15817;42.130;24.762;2023-10-08T10:41:12;99737.72;;;26.40;32.96
28630;BME280;15817;42.130;24.762;2023-10-08T10:44:10;99720.00;;;26.46;31.52
28630;BME280;15817;42.130;24.762;2023-10-08T10:47:03;99718.22;;;26.57;31.51
28630;BME280;15817;42.130;24.762;2023-10-08T10:50:07;99721.03;;;26.68;30.76
28630;BME280;15817;42.130;24.762;2023-10-08T10:52:36;99716.00;;;26.75;30.45
28630;BME280;15817;42.130;24.762;2023-10-08T10:55:37;99717.81;;;26.87;30.44
28630;BME280;15817;42.130;24.762;2023-10-08T10:58:22;99722.41;;;26.87;30.19
28630;BME280;15817;42.130;24.762;2023-10-08T11:01:09;99709.63;;;26.87;30.03
28630;BME280;15817;42.130;24.762;2023-10-08T11:04:00;99700.69;;;26.85;29.93
28630;BME280;15817;42.130;24.762;2023-10-08T11:06:32;99704.03;;;26.89;30.48
28630;BME280;15817;42.130;24.762;2023-10-08T11:09:31;99708.19;;;26.94;30.35
28630;BME280;15817;42.130;24.762;2023-10-08T11:12:35;99693.34;;;26.98;29.98
28630;BME280;15817;42.130;24.762;2023-10-08T11:15:17;99687.22;;;26.95;29.99
28630;BME280;15817;42.130;24.762;2023-10-08T11:17:53;99688.31;;;26.92;30.32
28630;BME280;15817;42.130;24.762;2023-10-08T11:20:29;99686.25;;;26.96;30.29
28630;BME280;15817;42.130;24.762;2023-10-08T11:23:01;99693.38;;;27.10;29.80
28630;BME280;15817;42.130;24.762;2023-10-08T11:26:02;99689.91;;;27.08;29.92
28630;BME280;15817;42.130;24.762;2023-10-08T11:28:44;99680.56;;;26.99;30.12
28630;BME280;15817;42.130;24.762;2023-10-08T11:31:21;99672.59;;;26.96;30.18
28630;BME280;15817;42.130;24.762;2023-10-08T11:34:07;99680.06;;;27.05;30.35
28630;BME280;15817;42.130;24.762;2023-10-08T11:37:00;99672.53;;;27.09;30.17
28630;BME280;15817;42.130;24.762;2023-10-08T11:39:55;99664.94;;;27.12;30.31
28630;BME280;15817;42.130;24.762;2023-10-08T11:43:15;99657.16;;;27.19;30.03
28630;BME280;15817;42.130;24.762;2023-10-08T11:49:42;99651.28;;;27.12;30.58
28630;BME280;15817;42.130;24.762;2023-10-08T11:52:30;99650.19;;;27.15;30.30
28630;BME280;15817;42.130;24.762;2023-10-08T11:55:08;99644.22;;;27.10;30.49
28630;BME280;15817;42.130;24.762;2023-10-08T11:57:35;99650.19;;;27.15;30.20
28630;BME280;15817;42.130;24.762;2023-10-08T12:00:17;99652.31;;;27.11;30.53
28630;BME280;15817;42.130;24.762;2023-10-08T12:05:43;99632.44;;;27.09;30.49
28630;BME280;15817;42.130;24.762;2023-10-08T12:08:27;99624.25;;;27.09;30.86
28630;BME280;15817;42.130;24.762;2023-10-08T12:11:03;99625.81;;;27.00;30.24
28630;BME280;15817;42.130;24.762;2023-10-08T12:13:37;99625.63;;;26.91;30.65
28630;BME280;15817;42.130;24.762;2023-10-08T12:16:35;99619.63;;;26.75;30.56
28630;BME280;15817;42.130;24.762;2023-10-08T12:19:08;99633.88;;;26.78;30.76
28630;BME280;15817;42.130;24.762;2023-10-08T12:21:56;99620.13;;;26.80;30.72
28630;BME280;15817;42.130;24.762;2023-10-08T12:24:35;99618.69;;;26.87;30.50
28630;BME280;15817;42.130;24.762;2023-10-08T12:27:04;99617.53;;;26.89;30.62
28630;BME280;15817;42.130;24.762;2023-10-08T12:29:52;99622.69;;;26.94;30.85
28630;BME280;15817;42.130;24.762;2023-10-08T12:32:47;99604.03;;;26.88;30.90
28630;BME280;15817;42.130;24.762;2023-10-08T12:35:57;99628.16;;;26.94;30.96
28630;BME280;15817;42.130;24.762;2023-10-08T12:38:25;99613.94;;;26.89;30.70
28630;BME280;15817;42.130;24.762;2023-10-08T12:41:11;99615.69;;;26.90;30.46
28630;BME280;15817;42.130;24.762;2023-10-08T12:43:46;99628.16;;;26.94;30.74
28630;BME280;15817;42.130;24.762;2023-10-08T12:46:26;99620.28;;;26.89;30.39
28630;BME280;15817;42.130;24.762;2023-10-08T12:49:02;99615.56;;;26.91;30.60
28630;BME280;15817;42.130;24.762;2023-10-08T12:51:53;99621.53;;;26.85;30.46
28630;BME280;15817;42.130;24.762;2023-10-08T12:58:00;99614.38;;;26.72;30.77
28630;BME280;15817;42.130;24.762;2023-10-08T13:01:22;99602.00;;;26.79;30.23
28630;BME280;15817;42.130;24.762;2023-10-08T13:03:55;99602.88;;;26.79;30.05
28630;BME280;15817;42.130;24.762;2023-10-08T13:06:59;99607.56;;;26.77;30.50
28630;BME280;15817;42.130;24.762;2023-10-08T13:09:34;99600.91;;;26.81;30.09
28630;BME280;15817;42.130;24.762;2023-10-08T13:12:05;99608.47;;;26.89;29.95
28630;BME280;15817;42.130;24.762;2023-10-08T13:14:33;99592.47;;;26.84;29.93
28630;BME280;15817;42.130;24.762;2023-10-08T13:17:19;99593.69;;;26.80;30.04
28630;BME280;15817;42.130;24.762;2023-10-08T13:20:17;99592.81;;;26.80;29.77
28630;BME280;15817;42.130;24.762;2023-10-08T13:22:48;99598.00;;;26.72;29.83
28630;BME280;15817;42.130;24.762;2023-10-08T13:25:16;99589.06;;;26.69;30.04
28630;BME280;15817;42.130;24.762;2023-10-08T13:28:13;99598.00;;;26.72;29.75
28630;BME280;15817;42.130;24.762;2023-10-08T13:31:12;99587.81;;;26.62;29.79
28630;BME280;15817;42.130;24.762;2023-10-08T13:33:58;99595.28;;;26.72;30.21
28630;BME280;15817;42.130;24.762;2023-10-08T13:36:50;99590.09;;;26.80;30.17
28630;BME280;15817;42.130;24.762;2023-10-08T13:39:25;99585.00;;;26.75;30.36
28630;BME280;15817;42.130;24.762;2023-10-08T13:42:13;99594.06;;;26.76;30.43
28630;BME280;15817;42.130;24.762;2023-10-08T13:44:47;99588.34;;;26.79;30.67
28630;BME280;15817;42.130;24.762;2023-10-08T13:47:18;99577.06;;;26.72;30.71
28630;BME280;15817;42.130;24.762;2023-10-08T13:53:04;99586.97;;;26.73;30.93
28630;BME280;15817;42.130;24.762;2023-10-08T13:55:46;99580.00;;;26.69;30.83
28630;BME280;15817;42.130;24.762;2023-10-08T13:58:59;99584.91;;;26.77;30.94
28630;BME280;15817;42.130;24.762;2023-10-08T14:01:49;99582.25;;;26.64;31.21
28630;BME280;15817;42.130;24.762;2023-10-08T14:04:19;99571.03;;;26.56;31.36
28630;BME280;15817;42.130;24.762;2023-10-08T14:06:46;99569.53;;;26.52;31.50
28630;BME280;15817;42.130;24.762;2023-10-08T14:09:46;99568.78;;;26.50;31.91
28630;BME280;15817;42.130;24.762;2023-10-08T14:12:21;99567.78;;;26.51;31.73
28630;BME280;15817;42.130;24.762;2023-10-08T14:14:52;99572.25;;;26.52;31.87
28630;BME280;15817;42.130;24.762;2023-10-08T14:18:03;99574.13;;;26.51;31.88
28630;BME280;15817;42.130;24.762;2023-10-08T14:24:25;99570.22;;;26.43;32.13
28630;BME280;15817;42.130;24.762;2023-10-08T14:27:17;99567.47;;;26.43;31.57
28630;BME280;15817;42.130;24.762;2023-10-08T14:30:14;99574.41;;;26.36;32.02
28630;BME280;15817;42.130;24.762;2023-10-08T14:33:07;99578.34;;;26.31;32.46
28630;BME280;15817;42.130;24.762;2023-10-08T14:36:33;99581.31;;;26.28;32.44
28630;BME280;15817;42.130;24.762;2023-10-08T14:39:28;99579.75;;;26.24;32.57
28630;BME280;15817;42.130;24.762;2023-10-08T14:42:21;99584.22;;;26.25;32.88
28630;BME280;15817;42.130;24.762;2023-10-08T14:45:22;99586.09;;;26.25;32.73
28630;BME280;15817;42.130;24.762;2023-10-08T14:51:26;99587.31;;;26.08;33.10
28630;BME280;15817;42.130;24.762;2023-10-08T14:58:12;99588.84;;;26.12;32.92
28630;BME280;15817;42.130;24.762;2023-10-08T15:01:21;99601.41;;;26.15;32.91
28630;BME280;15817;42.130;24.762;2023-10-08T15:04:48;99605.97;;;26.14;32.94
28630;BME280;15817;42.130;24.762;2023-10-08T15:07:48;99613.94;;;26.17;33.03
28630;BME280;15817;42.130;24.762;2023-10-08T15:14:51;99615.25;;;26.12;32.94
28630;BME280;15817;42.130;24.762;2023-10-08T15:22:27;99632.59;;;26.11;32.86
28630;BME280;15817;42.130;24.762;2023-10-08T15:33:35;99633.72;;;25.95;32.96
28630;BME280;15817;42.130;24.762;2023-10-08T15:42:40;99649.22;;;25.82;33.32
28630;BME280;15817;42.130;24.762;2023-10-08T15:45:24;99658.16;;;25.84;33.44
28630;BME280;15817;42.130;24.762;2023-10-08T15:51:48;99656.53;;;25.69;33.83
28630;BME280;15817;42.130;24.762;2023-10-08T15:54:59;99651.28;;;25.66;33.78
28630;BME280;15817;42.130;24.762;2023-10-08T15:58:05;99666.25;;;25.60;34.13
28630;BME280;15817;42.130;24.762;2023-10-08T16:01:14;99664.66;;;25.56;34.05
28630;BME280;15817;42.130;24.762;2023-10-08T16:04:08;99654.66;;;25.57;33.78
28630;BME280;15817;42.130;24.762;2023-10-08T16:07:03;99668.16;;;25.58;33.79